sensor_id;sensor_type;location;lat;lon;timestamp;P1;durP1;ratioP1;P2;durP2;ratioP2
52274;SDS011;38228;50.940;4.024;2022-10-30T00:01:57;21.23;;;6.55;;
52274;SDS011;38228;50.940;4.024;2022-10-30T00:04:23;20.23;;;6.35;;
52274;SDS011;38228;50.940;4.024;2022-10-30T00:06:49;19.98;;;7.30;;
52274;SDS011;38228;50.940;4.024;2022-10-30T00:09:14;17.17;;;7.00;;
52274;SDS011;38228;50.940;4.024;2022-10-30T00:11:40;11.50;;;6.65;;
52274;SDS011;38228;50.940;4.024;2022-10-30T00:14:06;19.75;;;7.80;;
52274;SDS011;38228;50.940;4.024;2022-10-30T00:16:33;24.30;;;7.13;;
52274;SDS011;38228;50.940;4.024;2022-10-30T00:18:58;17.38;;;6.68;;
52274;SDS011;38228;50.940;4.024;2022-10-30T00:21:24;21.77;;;7.65;;
52274;SDS011;38228;50.940;4.024;2022-10-30T00:23:51;19.35;;;6.70;;
52274;SDS011;38228;50.940;4.024;2022-10-30T00:26:18;16.60;;;7.07;;
52274;SDS011;38228;50.940;4.024;2022-10-30T00:28:48;17.50;;;6.78;;
52274;SDS011;38228;50.940;4.024;2022-10-30T00:31:17;18.98;;;7.28;;
52274;SDS011;38228;50.940;4.024;2022-10-30T00:33:43;18.60;;;7.43;;
52274;SDS011;38228;50.940;4.024;2022-10-30T00:36:12;16.38;;;6.88;;
52274;SDS011;38228;50.940;4.024;2022-10-30T00:38:38;23.08;;;7.80;;
52274;SDS011;38228;50.940;4.024;2022-10-30T00:41:03;16.45;;;7.18;;
52274;SDS011;38228;50.940;4.024;2022-10-30T00:43:36;22.63;;;7.60;;
52274;SDS011;38228;50.940;4.024;2022-10-30T00:48:42;14.80;;;7.20;;
52274;SDS011;38228;50.940;4.024;2022-10-30T00:51:10;19.08;;;7.20;;
52274;SDS011;38228;50.940;4.024;2022-10-30T00:53:37;22.52;;;7.05;;
52274;SDS011;38228;50.940;4.024;2022-10-30T00:56:04;19.15;;;7.45;;
52274;SDS011;38228;50.940;4.024;2022-10-30T00:58:32;16.42;;;7.28;;
52274;SDS011;38228;50.940;4.024;2022-10-30T01:01:04;19.75;;;7.35;;
52274;SDS011;38228;50.940;4.024;2022-10-30T01:03:35;19.02;;;8.02;;
52274;SDS011;38228;50.940;4.024;2022-10-30T01:06:03;23.35;;;7.30;;
52274;SDS011;38228;50.940;4.024;2022-10-30T01:08:32;20.33;;;8.00;;
52274;SDS011;38228;50.940;4.024;2022-10-30T01:10:59;18.95;;;7.85;;
52274;SDS011;38228;50.940;4.024;2022-10-30T01:13:26;19.83;;;6.88;;
52274;SDS011;38228;50.940;4.024;2022-10-30T01:16:01;21.90;;;7.70;;
52274;SDS011;38228;50.940;4.024;2022-10-30T01:21:46;18.67;;;6.75;;
52274;SDS011;38228;50.940;4.024;2022-10-30T01:24:35;22.48;;;7.93;;
52274;SDS011;38228;50.940;4.024;2022-10-30T01:35:56;18.17;;;7.95;;
52274;SDS011;38228;50.940;4.024;2022-10-30T01:38:43;17.17;;;7.65;;
52274;SDS011;38228;50.940;4.024;2022-10-30T01:41:16;16.40;;;7.78;;
52274;SDS011;38228;50.940;4.024;2022-10-30T01:43:41;21.30;;;8.45;;
52274;SDS011;38228;50.940;4.024;2022-10-30T02:00:04;21.83;;;8.18;;
52274;SDS011;38228;50.940;4.024;2022-10-30T02:02:31;22.42;;;8.23;;
52274;SDS011;38228;50.940;4.024;2022-10-30T02:04:58;21.67;;;9.18;;
52274;SDS011;38228;50.940;4.024;2022-10-30T02:07:24;16.67;;;8.32;;
52274;SDS011;38228;50.940;4.024;2022-10-30T02:09:50;19.55;;;8.45;;
52274;SDS011;38228;50.940;4.024;2022-10-30T02:12:17;19.67;;;8.82;;
52274;SDS011;38228;50.940;4.024;2022-10-30T02:14:45;19.90;;;8.10;;
52274;SDS011;38228;50.940;4.024;2022-10-30T02:17:13;20.80;;;8.48;;
52274;SDS011;38228;50.940;4.024;2022-10-30T02:19:40;19.70;;;8.77;;
52274;SDS011;38228;50.940;4.024;2022-10-30T02:22:07;21.08;;;9.10;;
52274;SDS011;38228;50.940;4.024;2022-10-30T02:24:33;20.92;;;8.77;;
52274;SDS011;38228;50.940;4.024;2022-10-30T02:26:58;18.90;;;8.23;;
52274;SDS011;38228;50.940;4.024;2022-10-30T02:29:25;19.70;;;9.05;;
52274;SDS011;38228;50.940;4.024;2022-10-30T02:31:50;21.02;;;7.50;;
52274;SDS011;38228;50.940;4.024;2022-10-30T02:34:16;20.50;;;8.38;;
52274;SDS011;38228;50.940;4.024;2022-10-30T02:36:42;20.58;;;7.85;;
52274;SDS011;38228;50.940;4.024;2022-10-30T02:39:07;22.92;;;8.25;;
52274;SDS011;38228;50.940;4.024;2022-10-30T02:41:33;22.30;;;9.52;;
52274;SDS011;38228;50.940;4.024;2022-10-30T02:43:59;19.35;;;8.38;;
52274;SDS011;38228;50.940;4.024;2022-10-30T02:46:25;17.33;;;8.13;;
52274;SDS011;38228;50.940;4.024;2022-10-30T02:48:51;17.55;;;8.23;;
52274;SDS011;38228;50.940;4.024;2022-10-30T02:51:16;23.80;;;9.07;;
52274;SDS011;38228;50.940;4.024;2022-10-30T02:53:42;18.92;;;8.73;;
52274;SDS011;38228;50.940;4.024;2022-10-30T02:56:09;22.58;;;8.85;;
52274;SDS011;38228;50.940;4.024;2022-10-30T02:58:36;23.73;;;8.95;;
52274;SDS011;38228;50.940;4.024;2022-10-30T03:01:06;23.75;;;9.57;;
52274;SDS011;38228;50.940;4.024;2022-10-30T03:03:36;24.13;;;8.60;;
52274;SDS011;38228;50.940;4.024;2022-10-30T03:06:03;22.98;;;8.35;;
52274;SDS011;38228;50.940;4.024;2022-10-30T03:08:30;21.75;;;9.20;;
52274;SDS011;38228;50.940;4.024;2022-10-30T03:11:03;20.83;;;8.98;;
52274;SDS011;38228;50.940;4.024;2022-10-30T03:13:33;22.20;;;9.00;;
52274;SDS011;38228;50.940;4.024;2022-10-30T03:16:00;22.00;;;8.80;;
52274;SDS011;38228;50.940;4.024;2022-10-30T03:18:31;24.33;;;8.55;;
52274;SDS011;38228;50.940;4.024;2022-10-30T03:21:00;16.17;;;8.13;;
52274;SDS011;38228;50.940;4.024;2022-10-30T03:23:28;23.60;;;8.77;;
52274;SDS011;38228;50.940;4.024;2022-10-30T03:25:54;19.42;;;8.60;;
52274;SDS011;38228;50.940;4.024;2022-10-30T03:28:22;19.02;;;8.68;;
52274;SDS011;38228;50.940;4.024;2022-10-30T03:30:49;20.90;;;8.68;;
52274;SDS011;38228;50.940;4.024;2022-10-30T03:33:15;22.17;;;8.32;;
52274;SDS011;38228;50.940;4.024;2022-10-30T03:35:45;14.88;;;8.20;;
52274;SDS011;38228;50.940;4.024;2022-10-30T03:38:11;22.42;;;9.02;;
52274;SDS011;38228;50.940;4.024;2022-10-30T03:40:37;23.33;;;8.50;;
52274;SDS011;38228;50.940;4.024;2022-10-30T03:43:04;22.38;;;9.05;;
52274;SDS011;38228;50.940;4.024;2022-10-30T03:45:30;23.90;;;9.05;;
52274;SDS011;38228;50.940;4.024;2022-10-30T03:48:00;22.80;;;8.93;;
52274;SDS011;38228;50.940;4.024;2022-10-30T03:50:26;19.55;;;9.23;;
52274;SDS011;38228;50.940;4.024;2022-10-30T03:52:52;21.38;;;9.55;;
52274;SDS011;38228;50.940;4.024;2022-10-30T03:55:18;24.13;;;9.52;;
52274;SDS011;38228;50.940;4.024;2022-10-30T03:57:44;21.42;;;9.02;;
52274;SDS011;38228;50.940;4.024;2022-10-30T04:00:10;21.65;;;9.70;;
52274;SDS011;38228;50.940;4.024;2022-10-30T04:02:36;26.00;;;9.57;;
52274;SDS011;38228;50.940;4.024;2022-10-30T04:05:02;24.75;;;9.55;;
52274;SDS011;38228;50.940;4.024;2022-10-30T04:07:28;20.63;;;9.00;;
52274;SDS011;38228;50.940;4.024;2022-10-30T04:09:54;22.52;;;9.60;;
52274;SDS011;38228;50.940;4.024;2022-10-30T04:12:19;17.27;;;9.05;;
52274;SDS011;38228;50.940;4.024;2022-10-30T04:14:45;15.90;;;8.70;;
52274;SDS011;38228;50.940;4.024;2022-10-30T04:17:11;22.67;;;9.38;;
52274;SDS011;38228;50.940;4.024;2022-10-30T04:19:36;22.70;;;9.52;;
52274;SDS011;38228;50.940;4.024;2022-10-30T04:22:02;27.33;;;9.70;;
52274;SDS011;38228;50.940;4.024;2022-10-30T04:24:28;22.23;;;9.05;;
52274;SDS011;38228;50.940;4.024;2022-10-30T04:26:54;22.58;;;10.02;;
52274;SDS011;38228;50.940;4.024;2022-10-30T04:29:19;22.48;;;9.45;;
52274;SDS011;38228;50.940;4.024;2022-10-30T04:31:45;25.52;;;8.95;;
52274;SDS011;38228;50.940;4.024;2022-10-30T04:34:11;23.40;;;9.63;;
52274;SDS011;38228;50.940;4.024;2022-10-30T04:36:36;24.98;;;10.32;;
52274;SDS011;38228;50.940;4.024;2022-10-30T04:39:02;25.90;;;9.52;;
52274;SDS011;38228;50.940;4.024;2022-10-30T04:41:28;23.33;;;9.90;;
52274;SDS011;38228;50.940;4.024;2022-10-30T04:43:54;23.17;;;9.77;;
52274;SDS011;38228;50.940;4.024;2022-10-30T04:46:19;27.83;;;9.20;;
52274;SDS011;38228;50.940;4.024;2022-10-30T04:48:45;20.17;;;9.38;;
52274;SDS011;38228;50.940;4.024;2022-10-30T04:51:11;30.60;;;9.65;;
52274;SDS011;38228;50.940;4.024;2022-10-30T04:53:37;21.02;;;9.13;;
52274;SDS011;38228;50.940;4.024;2022-10-30T04:56:03;23.00;;;9.50;;
52274;SDS011;38228;50.940;4.024;2022-10-30T04:58:30;33.67;;;9.60;;
52274;SDS011;38228;50.940;4.024;2022-10-30T05:00:59;29.15;;;10.23;;
52274;SDS011;38228;50.940;4.024;2022-10-30T05:03:25;21.25;;;10.13;;
52274;SDS011;38228;50.940;4.024;2022-10-30T05:08:37;21.05;;;9.70;;
52274;SDS011;38228;50.940;4.024;2022-10-30T05:11:03;26.35;;;9.52;;
52274;SDS011;38228;50.940;4.024;2022-10-30T05:13:29;19.17;;;9.90;;
52274;SDS011;38228;50.940;4.024;2022-10-30T05:15:55;21.25;;;10.27;;
52274;SDS011;38228;50.940;4.024;2022-10-30T05:18:21;23.10;;;9.27;;
52274;SDS011;38228;50.940;4.024;2022-10-30T05:20:46;25.60;;;10.40;;
52274;SDS011;38228;50.940;4.024;2022-10-30T05:23:12;20.25;;;9.50;;
52274;SDS011;38228;50.940;4.024;2022-10-30T05:25:38;25.30;;;9.13;;
52274;SDS011;38228;50.940;4.024;2022-10-30T05:28:04;20.08;;;9.05;;
52274;SDS011;38228;50.940;4.024;2022-10-30T05:30:31;24.25;;;9.80;;
52274;SDS011;38228;50.940;4.024;2022-10-30T05:33:02;22.92;;;10.23;;
52274;SDS011;38228;50.940;4.024;2022-10-30T05:35:29;26.45;;;9.63;;
52274;SDS011;38228;50.940;4.024;2022-10-30T05:37:57;20.10;;;9.40;;
52274;SDS011;38228;50.940;4.024;2022-10-30T05:40:27;21.33;;;9.65;;
52274;SDS011;38228;50.940;4.024;2022-10-30T05:42:53;26.33;;;9.88;;
52274;SDS011;38228;50.940;4.024;2022-10-30T05:45:19;24.42;;;10.70;;
52274;SDS011;38228;50.940;4.024;2022-10-30T05:47:54;24.50;;;10.43;;
52274;SDS011;38228;50.940;4.024;2022-10-30T05:50:27;26.33;;;10.82;;
52274;SDS011;38228;50.940;4.024;2022-10-30T05:52:54;21.67;;;9.77;;
52274;SDS011;38228;50.940;4.024;2022-10-30T05:55:23;22.52;;;9.75;;
52274;SDS011;38228;50.940;4.024;2022-10-30T05:57:49;29.67;;;9.52;;
52274;SDS011;38228;50.940;4.024;2022-10-30T06:00:19;23.35;;;9.13;;
52274;SDS011;38228;50.940;4.024;2022-10-30T06:02:44;23.02;;;10.27;;
52274;SDS011;38228;50.940;4.024;2022-10-30T06:05:10;21.75;;;9.57;;
52274;SDS011;38228;50.940;4.024;2022-10-30T06:07:35;29.27;;;10.07;;
52274;SDS011;38228;50.940;4.024;2022-10-30T06:10:01;19.73;;;9.68;;
52274;SDS011;38228;50.940;4.024;2022-10-30T06:12:27;25.52;;;9.40;;
52274;SDS011;38228;50.940;4.024;2022-10-30T06:14:52;23.77;;;9.73;;
52274;SDS011;38228;50.940;4.024;2022-10-30T06:17:18;26.35;;;10.02;;
52274;SDS011;38228;50.940;4.024;2022-10-30T06:19:44;21.50;;;9.25;;
52274;SDS011;38228;50.940;4.024;2022-10-30T06:22:09;25.58;;;9.88;;
52274;SDS011;38228;50.940;4.024;2022-10-30T06:24:35;25.00;;;11.02;;
52274;SDS011;38228;50.940;4.024;2022-10-30T06:27:00;26.30;;;10.13;;
52274;SDS011;38228;50.940;4.024;2022-10-30T06:29:26;26.83;;;10.65;;
52274;SDS011;38228;50.940;4.024;2022-10-30T06:31:52;23.73;;;10.35;;
52274;SDS011;38228;50.940;4.024;2022-10-30T06:34:17;22.80;;;10.07;;
52274;SDS011;38228;50.940;4.024;2022-10-30T06:36:43;22.33;;;10.68;;
52274;SDS011;38228;50.940;4.024;2022-10-30T06:39:08;24.20;;;10.30;;
52274;SDS011;38228;50.940;4.024;2022-10-30T06:41:34;29.95;;;11.38;;
52274;SDS011;38228;50.940;4.024;2022-10-30T06:44:00;23.38;;;10.63;;
52274;SDS011;38228;50.940;4.024;2022-10-30T06:46:25;20.20;;;10.85;;
52274;SDS011;38228;50.940;4.024;2022-10-30T06:48:51;22.08;;;10.30;;
52274;SDS011;38228;50.940;4.024;2022-10-30T06:51:17;25.23;;;11.10;;
52274;SDS011;38228;50.940;4.024;2022-10-30T06:53:42;25.60;;;10.15;;
52274;SDS011;38228;50.940;4.024;2022-10-30T06:56:08;27.48;;;10.20;;
52274;SDS011;38228;50.940;4.024;2022-10-30T06:58:34;26.15;;;10.48;;
52274;SDS011;38228;50.940;4.024;2022-10-30T07:01:06;26.75;;;9.93;;
52274;SDS011;38228;50.940;4.024;2022-10-30T07:03:33;20.02;;;9.82;;
52274;SDS011;38228;50.940;4.024;2022-10-30T07:05:59;19.90;;;10.05;;
52274;SDS011;38228;50.940;4.024;2022-10-30T07:08:25;27.60;;;9.68;;
52274;SDS011;38228;50.940;4.024;2022-10-30T07:10:51;26.08;;;10.38;;
52274;SDS011;38228;50.940;4.024;2022-10-30T07:13:16;20.52;;;8.82;;
52274;SDS011;38228;50.940;4.024;2022-10-30T07:15:42;24.77;;;9.88;;
52274;SDS011;38228;50.940;4.024;2022-10-30T07:18:08;20.30;;;10.02;;
52274;SDS011;38228;50.940;4.024;2022-10-30T07:20:35;22.40;;;10.25;;
52274;SDS011;38228;50.940;4.024;2022-10-30T07:23:01;23.25;;;9.73;;
52274;SDS011;38228;50.940;4.024;2022-10-30T07:25:27;21.38;;;9.10;;
52274;SDS011;38228;50.940;4.024;2022-10-30T07:27:53;21.27;;;9.07;;
52274;SDS011;38228;50.940;4.024;2022-10-30T07:30:21;25.30;;;9.55;;
52274;SDS011;38228;50.940;4.024;2022-10-30T07:32:55;20.48;;;9.07;;
52274;SDS011;38228;50.940;4.024;2022-10-30T07:35:25;19.48;;;8.40;;
52274;SDS011;38228;50.940;4.024;2022-10-30T07:37:50;23.38;;;8.85;;
52274;SDS011;38228;50.940;4.024;2022-10-30T07:40:16;20.20;;;8.45;;
52274;SDS011;38228;50.940;4.024;2022-10-30T07:42:42;23.48;;;9.02;;
52274;SDS011;38228;50.940;4.024;2022-10-30T07:45:08;19.70;;;8.00;;
52274;SDS011;38228;50.940;4.024;2022-10-30T07:47:40;15.40;;;7.88;;
52274;SDS011;38228;50.940;4.024;2022-10-30T07:50:07;25.77;;;8.73;;
52274;SDS011;38228;50.940;4.024;2022-10-30T07:52:33;21.80;;;8.20;;
52274;SDS011;38228;50.940;4.024;2022-10-30T07:54:59;21.92;;;8.68;;
52274;SDS011;38228;50.940;4.024;2022-10-30T07:57:25;21.60;;;7.68;;
52274;SDS011;38228;50.940;4.024;2022-10-30T07:59:51;23.13;;;8.13;;
52274;SDS011;38228;50.940;4.024;2022-10-30T08:02:16;25.02;;;8.07;;
52274;SDS011;38228;50.940;4.024;2022-10-30T08:04:42;20.35;;;7.97;;
52274;SDS011;38228;50.940;4.024;2022-10-30T08:07:07;20.83;;;8.52;;
52274;SDS011;38228;50.940;4.024;2022-10-30T08:09:33;22.50;;;8.73;;
52274;SDS011;38228;50.940;4.024;2022-10-30T08:11:59;21.10;;;8.65;;
52274;SDS011;38228;50.940;4.024;2022-10-30T08:14:24;19.50;;;8.10;;
52274;SDS011;38228;50.940;4.024;2022-10-30T08:16:50;23.73;;;8.13;;
52274;SDS011;38228;50.940;4.024;2022-10-30T08:19:16;18.65;;;8.35;;
52274;SDS011;38228;50.940;4.024;2022-10-30T08:21:41;23.67;;;7.95;;
52274;SDS011;38228;50.940;4.024;2022-10-30T08:24:07;23.08;;;7.97;;
52274;SDS011;38228;50.940;4.024;2022-10-30T08:26:33;20.75;;;7.63;;
52274;SDS011;38228;50.940;4.024;2022-10-30T08:28:59;17.33;;;7.93;;
52274;SDS011;38228;50.940;4.024;2022-10-30T08:31:25;18.05;;;8.05;;
52274;SDS011;38228;50.940;4.024;2022-10-30T08:33:50;19.00;;;7.57;;
52274;SDS011;38228;50.940;4.024;2022-10-30T08:36:16;18.20;;;7.93;;
52274;SDS011;38228;50.940;4.024;2022-10-30T08:38:42;20.48;;;8.73;;
52274;SDS011;38228;50.940;4.024;2022-10-30T08:41:07;17.45;;;8.60;;
52274;SDS011;38228;50.940;4.024;2022-10-30T08:43:33;23.05;;;8.52;;
52274;SDS011;38228;50.940;4.024;2022-10-30T08:45:58;22.10;;;7.82;;
52274;SDS011;38228;50.940;4.024;2022-10-30T08:48:25;20.15;;;7.68;;
52274;SDS011;38228;50.940;4.024;2022-10-30T08:50:50;14.82;;;7.50;;
52274;SDS011;38228;50.940;4.024;2022-10-30T08:53:16;17.77;;;7.65;;
52274;SDS011;38228;50.940;4.024;2022-10-30T08:55:42;17.88;;;7.72;;
52274;SDS011;38228;50.940;4.024;2022-10-30T08:58:08;18.05;;;8.10;;
52274;SDS011;38228;50.940;4.024;2022-10-30T09:00:34;22.17;;;7.57;;
52274;SDS011;38228;50.940;4.024;2022-10-30T09:02:59;15.98;;;7.35;;
52274;SDS011;38228;50.940;4.024;2022-10-30T09:05:25;19.08;;;7.40;;
52274;SDS011;38228;50.940;4.024;2022-10-30T09:07:54;19.05;;;8.13;;
52274;SDS011;38228;50.940;4.024;2022-10-30T09:10:21;15.75;;;6.82;;
52274;SDS011;38228;50.940;4.024;2022-10-30T09:12:47;20.00;;;7.32;;
52274;SDS011;38228;50.940;4.024;2022-10-30T09:15:17;16.90;;;6.75;;
52274;SDS011;38228;50.940;4.024;2022-10-30T09:17:43;19.60;;;7.20;;
52274;SDS011;38228;50.940;4.024;2022-10-30T09:20:08;19.08;;;7.18;;
52274;SDS011;38228;50.940;4.024;2022-10-30T09:22:38;20.65;;;7.65;;
52274;SDS011;38228;50.940;4.024;2022-10-30T09:25:05;23.38;;;7.05;;
52274;SDS011;38228;50.940;4.024;2022-10-30T09:27:35;15.20;;;7.53;;
52274;SDS011;38228;50.940;4.024;2022-10-30T09:30:04;12.32;;;6.40;;
52274;SDS011;38228;50.940;4.024;2022-10-30T09:32:30;16.63;;;6.88;;
52274;SDS011;38228;50.940;4.024;2022-10-30T09:34:57;21.90;;;6.18;;
52274;SDS011;38228;50.940;4.024;2022-10-30T09:37:22;17.15;;;6.75;;
52274;SDS011;38228;50.940;4.024;2022-10-30T09:39:48;20.60;;;7.00;;
52274;SDS011;38228;50.940;4.024;2022-10-30T09:45:08;19.27;;;6.68;;
52274;SDS011;38228;50.940;4.024;2022-10-30T09:53:02;17.90;;;7.05;;
52274;SDS011;38228;50.940;4.024;2022-10-30T09:58:32;19.52;;;7.30;;
52274;SDS011;38228;50.940;4.024;2022-10-30T10:01:32;14.70;;;6.47;;
52274;SDS011;38228;50.940;4.024;2022-10-30T10:07:14;18.60;;;6.32;;
52274;SDS011;38228;50.940;4.024;2022-10-30T10:09:46;18.20;;;6.65;;
52274;SDS011;38228;50.940;4.024;2022-10-30T10:12:26;19.00;;;7.40;;
52274;SDS011;38228;50.940;4.024;2022-10-30T10:14:59;20.27;;;6.95;;
52274;SDS011;38228;50.940;4.024;2022-10-30T10:17:30;18.15;;;5.95;;
52274;SDS011;38228;50.940;4.024;2022-10-30T10:20:00;19.10;;;7.05;;
52274;SDS011;38228;50.940;4.024;2022-10-30T10:22:42;19.55;;;7.00;;
52274;SDS011;38228;50.940;4.024;2022-10-30T10:25:12;14.45;;;6.15;;
52274;SDS011;38228;50.940;4.024;2022-10-30T10:30:47;22.02;;;6.85;;
52274;SDS011;38228;50.940;4.024;2022-10-30T10:39:04;21.55;;;6.95;;
52274;SDS011;38228;50.940;4.024;2022-10-30T10:47:17;19.27;;;6.55;;
52274;SDS011;38228;50.940;4.024;2022-10-30T10:52:20;13.73;;;6.03;;
52274;SDS011;38228;50.940;4.024;2022-10-30T10:54:52;19.20;;;6.95;;
52274;SDS011;38228;50.940;4.024;2022-10-30T10:57:28;19.25;;;7.28;;
52274;SDS011;38228;50.940;4.024;2022-10-30T11:00:02;15.47;;;6.77;;
52274;SDS011;38228;50.940;4.024;2022-10-30T11:07:45;19.98;;;6.63;;
52274;SDS011;38228;50.940;4.024;2022-10-30T11:10:13;22.20;;;7.03;;
52274;SDS011;38228;50.940;4.024;2022-10-30T11:12:41;22.50;;;6.25;;
52274;SDS011;38228;50.940;4.024;2022-10-30T11:25:56;21.30;;;7.05;;
52274;SDS011;38228;50.940;4.024;2022-10-30T11:28:47;15.35;;;6.40;;
52274;SDS011;38228;50.940;4.024;2022-10-30T11:31:27;16.83;;;6.80;;
52274;SDS011;38228;50.940;4.024;2022-10-30T11:34:46;20.45;;;6.22;;
52274;SDS011;38228;50.940;4.024;2022-10-30T11:36:55;18.40;;;6.55;;
52274;SDS011;38228;50.940;4.024;2022-10-30T11:42:01;15.75;;;6.60;;
52274;SDS011;38228;50.940;4.024;2022-10-30T11:44:29;20.02;;;7.22;;
52274;SDS011;38228;50.940;4.024;2022-10-30T11:46:56;13.52;;;6.18;;
52274;SDS011;38228;50.940;4.024;2022-10-30T11:49:45;21.42;;;6.82;;
52274;SDS011;38228;50.940;4.024;2022-10-30T11:52:18;14.65;;;6.75;;
52274;SDS011;38228;50.940;4.024;2022-10-30T11:54:47;15.65;;;6.78;;
52274;SDS011;38228;50.940;4.024;2022-10-30T11:57:23;16.60;;;6.55;;
52274;SDS011;38228;50.940;4.024;2022-10-30T11:59:59;16.00;;;6.75;;
52274;SDS011;38228;50.940;4.024;2022-10-30T12:02:28;20.27;;;7.72;;
52274;SDS011;38228;50.940;4.024;2022-10-30T12:05:12;17.83;;;7.40;;
52274;SDS011;38228;50.940;4.024;2022-10-30T12:07:49;16.50;;;6.55;;
52274;SDS011;38228;50.940;4.024;2022-10-30T12:10:28;19.52;;;6.70;;
52274;SDS011;38228;50.940;4.024;2022-10-30T12:12:54;14.52;;;6.90;;
52274;SDS011;38228;50.940;4.024;2022-10-30T12:15:22;19.10;;;6.50;;
52274;SDS011;38228;50.940;4.024;2022-10-30T12:17:54;17.85;;;6.80;;
52274;SDS011;38228;50.940;4.024;2022-10-30T12:20:27;16.05;;;7.25;;
52274;SDS011;38228;50.940;4.024;2022-10-30T12:22:53;20.17;;;7.13;;
52274;SDS011;38228;50.940;4.024;2022-10-30T12:25:23;13.30;;;6.68;;
52274;SDS011;38228;50.940;4.024;2022-10-30T12:27:50;15.05;;;6.43;;
52274;SDS011;38228;50.940;4.024;2022-10-30T12:30:24;18.13;;;6.85;;
52274;SDS011;38228;50.940;4.024;2022-10-30T12:38:05;17.63;;;6.97;;
52274;SDS011;38228;50.940;4.024;2022-10-30T12:40:35;15.40;;;6.70;;
52274;SDS011;38228;50.940;4.024;2022-10-30T12:45:44;21.77;;;7.38;;
52274;SDS011;38228;50.940;4.024;2022-10-30T12:51:02;18.30;;;6.95;;
52274;SDS011;38228;50.940;4.024;2022-10-30T12:56:40;18.30;;;7.40;;
52274;SDS011;38228;50.940;4.024;2022-10-30T13:01:37;22.52;;;7.82;;
52274;SDS011;38228;50.940;4.024;2022-10-30T13:04:23;19.38;;;6.93;;
52274;SDS011;38228;50.940;4.024;2022-10-30T13:09:28;23.02;;;7.57;;
52274;SDS011;38228;50.940;4.024;2022-10-30T13:12:03;15.68;;;7.45;;
52274;SDS011;38228;50.940;4.024;2022-10-30T13:14:44;17.42;;;7.32;;
52274;SDS011;38228;50.940;4.024;2022-10-30T13:17:13;18.33;;;7.97;;
52274;SDS011;38228;50.940;4.024;2022-10-30T13:19:40;18.52;;;8.07;;
52274;SDS011;38228;50.940;4.024;2022-10-30T13:22:07;25.20;;;8.65;;
52274;SDS011;38228;50.940;4.024;2022-10-30T13:30:15;19.17;;;7.88;;
52274;SDS011;38228;50.940;4.024;2022-10-30T13:44:17;19.85;;;8.10;;
52274;SDS011;38228;50.940;4.024;2022-10-30T13:52:15;17.77;;;7.97;;
52274;SDS011;38228;50.940;4.024;2022-10-30T13:54:44;21.92;;;8.88;;
52274;SDS011;38228;50.940;4.024;2022-10-30T14:00:40;17.02;;;7.45;;
52274;SDS011;38228;50.940;4.024;2022-10-30T14:11:43;18.48;;;6.47;;
52274;SDS011;38228;50.940;4.024;2022-10-30T14:16:41;18.25;;;6.68;;
52274;SDS011;38228;50.940;4.024;2022-10-30T14:19:09;19.17;;;6.82;;
52274;SDS011;38228;50.940;4.024;2022-10-30T14:21:54;16.90;;;6.85;;
52274;SDS011;38228;50.940;4.024;2022-10-30T14:24:27;20.08;;;6.90;;
52274;SDS011;38228;50.940;4.024;2022-10-30T14:35:00;19.58;;;8.40;;
52274;SDS011;38228;50.940;4.024;2022-10-30T14:39:51;19.45;;;8.40;;
52274;SDS011;38228;50.940;4.024;2022-10-30T14:50:27;18.60;;;6.05;;
52274;SDS011;38228;50.940;4.024;2022-10-30T14:53:09;15.52;;;5.60;;
52274;SDS011;38228;50.940;4.024;2022-10-30T14:58:30;13.27;;;5.78;;
52274;SDS011;38228;50.940;4.024;2022-10-30T15:06:01;14.13;;;5.60;;
52274;SDS011;38228;50.940;4.024;2022-10-30T15:14:45;19.08;;;6.15;;
52274;SDS011;38228;50.940;4.024;2022-10-30T15:17:18;15.07;;;6.85;;
52274;SDS011;38228;50.940;4.024;2022-10-30T15:19:49;15.48;;;6.43;;
52274;SDS011;38228;50.940;4.024;2022-10-30T15:22:16;15.63;;;6.15;;
52274;SDS011;38228;50.940;4.024;2022-10-30T15:24:44;13.98;;;5.75;;
52274;SDS011;38228;50.940;4.024;2022-10-30T15:27:15;14.48;;;5.70;;
52274;SDS011;38228;50.940;4.024;2022-10-30T15:29:43;14.43;;;5.38;;
52274;SDS011;38228;50.940;4.024;2022-10-30T15:32:20;15.63;;;6.10;;
52274;SDS011;38228;50.940;4.024;2022-10-30T15:34:57;20.25;;;5.38;;
52274;SDS011;38228;50.940;4.024;2022-10-30T15:37:24;15.80;;;4.88;;
52274;SDS011;38228;50.940;4.024;2022-10-30T15:40:35;12.93;;;4.85;;
52274;SDS011;38228;50.940;4.024;2022-10-30T15:42:43;18.05;;;4.43;;
52274;SDS011;38228;50.940;4.024;2022-10-30T15:45:17;12.48;;;4.80;;
52274;SDS011;38228;50.940;4.024;2022-10-30T15:47:46;9.68;;;3.40;;
52274;SDS011;38228;50.940;4.024;2022-10-30T15:50:21;13.23;;;3.90;;
52274;SDS011;38228;50.940;4.024;2022-10-30T15:52:47;13.35;;;3.85;;
52274;SDS011;38228;50.940;4.024;2022-10-30T15:55:14;13.80;;;3.70;;
52274;SDS011;38228;50.940;4.024;2022-10-30T15:57:45;10.93;;;3.13;;
52274;SDS011;38228;50.940;4.024;2022-10-30T16:00:21;15.07;;;3.78;;
52274;SDS011;38228;50.940;4.024;2022-10-30T16:02:59;13.38;;;3.00;;
52274;SDS011;38228;50.940;4.024;2022-10-30T16:05:25;13.63;;;3.13;;
52274;SDS011;38228;50.940;4.024;2022-10-30T16:07:54;8.25;;;2.85;;
52274;SDS011;38228;50.940;4.024;2022-10-30T16:10:21;9.75;;;2.40;;
52274;SDS011;38228;50.940;4.024;2022-10-30T16:12:47;11.73;;;3.08;;
52274;SDS011;38228;50.940;4.024;2022-10-30T16:15:21;15.77;;;3.33;;
52274;SDS011;38228;50.940;4.024;2022-10-30T16:17:59;9.15;;;2.55;;
52274;SDS011;38228;50.940;4.024;2022-10-30T16:20:27;9.18;;;2.60;;
52274;SDS011;38228;50.940;4.024;2022-10-30T16:22:52;14.70;;;3.17;;
52274;SDS011;38228;50.940;4.024;2022-10-30T16:25:18;8.77;;;2.40;;
52274;SDS011;38228;50.940;4.024;2022-10-30T16:27:45;10.75;;;2.70;;
52274;SDS011;38228;50.940;4.024;2022-10-30T16:30:14;12.75;;;2.80;;
52274;SDS011;38228;50.940;4.024;2022-10-30T16:32:40;10.43;;;2.72;;
52274;SDS011;38228;50.940;4.024;2022-10-30T16:35:12;11.68;;;3.05;;
52274;SDS011;38228;50.940;4.024;2022-10-30T16:37:38;10.02;;;2.97;;
52274;SDS011;38228;50.940;4.024;2022-10-30T16:40:12;11.88;;;2.85;;
52274;SDS011;38228;50.940;4.024;2022-10-30T16:42:40;8.80;;;4.07;;
52274;SDS011;38228;50.940;4.024;2022-10-30T16:47:55;11.57;;;3.33;;
52274;SDS011;38228;50.940;4.024;2022-10-30T16:50:27;12.30;;;3.30;;
52274;SDS011;38228;50.940;4.024;2022-10-30T16:53:06;14.38;;;3.30;;
52274;SDS011;38228;50.940;4.024;2022-10-30T16:55:38;12.68;;;3.10;;
52274;SDS011;38228;50.940;4.024;2022-10-30T16:58:04;9.55;;;3.10;;
52274;SDS011;38228;50.940;4.024;2022-10-30T17:00:29;15.00;;;3.75;;
52274;SDS011;38228;50.940;4.024;2022-10-30T17:02:56;10.77;;;3.22;;
52274;SDS011;38228;50.940;4.024;2022-10-30T17:07:54;12.10;;;4.30;;
52274;SDS011;38228;50.940;4.024;2022-10-30T17:10:56;12.32;;;4.13;;
52274;SDS011;38228;50.940;4.024;2022-10-30T17:15:58;10.27;;;3.95;;
52274;SDS011;38228;50.940;4.024;2022-10-30T17:18:41;14.10;;;4.47;;
52274;SDS011;38228;50.940;4.024;2022-10-30T17:21:13;12.82;;;5.18;;
52274;SDS011;38228;50.940;4.024;2022-10-30T17:23:45;13.80;;;5.78;;
52274;SDS011;38228;50.940;4.024;2022-10-30T17:26:15;15.57;;;5.15;;
52274;SDS011;38228;50.940;4.024;2022-10-30T17:28:42;17.70;;;7.10;;
52274;SDS011;38228;50.940;4.024;2022-10-30T17:31:25;18.92;;;7.00;;
52274;SDS011;38228;50.940;4.024;2022-10-30T17:34:17;19.65;;;6.18;;
52274;SDS011;38228;50.940;4.024;2022-10-30T17:36:45;15.13;;;6.55;;
52274;SDS011;38228;50.940;4.024;2022-10-30T17:39:12;19.92;;;6.53;;
52274;SDS011;38228;50.940;4.024;2022-10-30T17:41:39;14.88;;;6.45;;